Time;durP1;ratioP1;P1;durP2;ratioP2;P2;SDS_P1;SDS_P2;PMS_P1;PMS_P2;Temp;Humidity;BMP_temperature;BMP_pressure;BME280_temperature;BME280_humidity;BME280_pressure;Samples;Min_cycle;Max_cycle;Signal;HPM_P1;HPM_P2
2023/05/31 00:04:49;;;;;;;1.88;0.88;;;24.20;52.70;;;;;;10529860;28;20068;-24
2023/05/31 00:09:51;;;;;;;1.83;1.10;;;24.20;52.90;;;;;;10544480;28;20131;-24
2023/05/31 00:14:53;;;;;;;1.63;1.15;;;24.10;52.90;;;;;;10528992;28;20059;-22
2023/05/31 00:19:57;;;;;;;1.42;1.00;;;24.10;52.80;;;;;;10517928;28;20482;-24
2023/05/31 00:24:58;;;;;;;2.25;1.17;;;24.10;52.90;;;;;;10535651;28;20123;-24
2023/05/31 00:30:00;;;;;;;1.55;1.00;;;24.10;52.90;;;;;;10516367;28;20134;-25
2023/05/31 00:35:04;;;;;;;1.48;0.73;;;23.90;52.80;;;;;;10529752;28;20048;-24
2023/05/31 00:40:07;;;;;;;1.52;1.05;;;24.00;52.60;;;;;;10525055;28;20037;-24
2023/05/31 00:45:09;;;;;;;1.85;0.95;;;23.90;52.50;;;;;;10528509;28;20040;-22
2023/05/31 00:50:13;;;;;;;1.33;0.95;;;23.90;52.90;;;;;;10528887;28;20559;-24
2023/05/31 00:55:15;;;;;;;1.15;0.80;;;23.90;53.10;;;;;;10521633;28;20079;-22
2023/05/31 01:00:18;;;;;;;1.15;1.05;;;23.80;52.90;;;;;;10530034;28;20086;-23
2023/05/31 01:05:22;;;;;;;0.95;0.80;;;23.90;52.90;;;;;;10513415;28;20072;-22
2023/05/31 01:10:24;;;;;;;1.23;0.90;;;23.90;53.00;;;;;;10518366;28;20084;-24
2023/05/31 01:15:35;;;;;;;2.55;0.98;;;23.90;52.80;;;;;;10514579;28;20485;-24
2023/05/31 01:20:41;;;;;;;0.88;0.75;;;23.90;53.00;;;;;;10525645;28;20101;-24
2023/05/31 01:26:36;;;;;;;1.52;0.90;;;23.80;52.90;;;;;;10530232;28;20126;-24
2023/05/31 01:32:14;;;;;;;1.38;0.88;;;23.80;53.10;;;;;;10492792;28;20075;-24
2023/05/31 01:37:17;;;;;;;1.10;0.60;;;23.80;53.10;;;;;;10531872;28;20054;-24
2023/05/31 01:42:20;;;;;;;1.35;0.55;;;23.70;53.00;;;;;;10527663;28;20036;-24
2023/05/31 01:47:23;;;;;;;1.25;0.95;;;23.70;53.00;;;;;;10522003;28;20079;-24
2023/05/31 01:52:27;;;;;;;1.25;0.70;;;23.70;53.20;;;;;;10517585;28;20056;-23
2023/05/31 01:57:31;;;;;;;0.85;0.60;;;23.70;53.10;;;;;;10519305;28;20044;-24
2023/05/31 02:02:34;;;;;;;1.40;1.00;;;23.70;53.00;;;;;;10539096;28;20407;-25
2023/05/31 02:07:38;;;;;;;1.20;0.88;;;23.60;53.00;;;;;;10517760;28;20113;-24
2023/05/31 02:12:40;;;;;;;1.02;0.70;;;23.60;53.20;;;;;;10527010;28;20048;-24
2023/05/31 02:17:50;;;;;;;1.10;0.80;;;23.60;53.20;;;;;;10520484;28;20039;-23
2023/05/31 02:22:53;;;;;;;1.25;0.90;;;23.60;53.20;;;;;;10528760;28;20056;-24
2023/05/31 02:27:57;;;;;;;0.80;0.60;;;23.60;53.20;;;;;;10515903;28;20053;-24
2023/05/31 02:32:59;;;;;;;3.55;1.77;;;23.50;53.10;;;;;;10532701;28;20131;-23
2023/05/31 02:38:03;;;;;;;0.73;0.60;;;23.50;53.30;;;;;;10511573;28;20052;-23
2023/05/31 02:43:05;;;;;;;1.00;0.80;;;23.50;53.10;;;;;;10528906;28;20040;-24
2023/05/31 02:48:07;;;;;;;1.08;0.70;;;23.40;53.20;;;;;;10525450;28;20128;-24
2023/05/31 02:53:10;;;;;;;1.27;0.70;;;23.40;53.30;;;;;;10517924;28;20111;-24
2023/05/31 03:15:29;;;;;;;0.98;0.77;;;23.30;52.70;;;;;;10519798;27;20140;-23
2023/05/31 03:20:32;;;;;;;2.03;0.73;;;23.30;53.40;;;;;;10530941;28;20437;-24
2023/05/31 03:25:34;;;;;;;1.58;0.73;;;23.20;54.00;;;;;;10522926;28;20528;-23
2023/05/31 03:30:38;;;;;;;1.08;0.68;;;23.20;53.40;;;;;;10522362;28;20044;-24
2023/05/31 03:35:40;;;;;;;0.77;0.50;;;23.10;53.20;;;;;;10528907;28;20175;-24
2023/05/31 03:40:41;;;;;;;0.75;0.73;;;23.10;53.30;;;;;;10516103;28;20041;-23
2023/05/31 03:45:45;;;;;;;1.17;0.55;;;23.10;53.50;;;;;;10524909;28;20093;-23
2023/05/31 03:50:47;;;;;;;0.65;0.65;;;23.00;53.30;;;;;;10520922;28;20485;-24
2023/05/31 03:55:49;;;;;;;0.73;0.68;;;23.00;53.70;;;;;;10517195;28;20082;-24
2023/05/31 04:00:52;;;;;;;3.15;0.80;;;23.00;53.30;;;;;;10514498;28;20079;-24
2023/05/31 04:06:37;;;;;;;1.40;0.82;;;23.00;53.50;;;;;;10522830;28;20094;-22
2023/05/31 04:11:38;;;;;;;0.75;0.47;;;23.00;53.50;;;;;;10516211;28;20098;-24
2023/05/31 04:16:42;;;;;;;1.52;0.80;;;23.00;53.60;;;;;;10528121;28;20127;-23
2023/05/31 04:21:44;;;;;;;1.52;0.90;;;23.10;53.60;;;;;;10527324;28;20044;-24
2023/05/31 04:26:46;;;;;;;1.70;0.73;;;23.00;53.50;;;;;;10482330;28;20135;-24
2023/05/31 04:31:49;;;;;;;;;;;23.00;53.40;;;;;;10484056;28;20462;-22
2023/05/31 04:36:51;;;;;;;0.70;0.60;;;22.90;53.70;;;;;;10487040;28;19925;-24
2023/05/31 04:41:53;;;;;;;0.90;0.90;;;22.80;53.40;;;;;;10487411;28;20090;-23
2023/05/31 04:46:56;;;;;;;0.55;0.55;;;22.90;53.40;;;;;;10488526;28;20052;-24
2023/05/31 04:51:59;;;;;;;3.30;0.70;;;22.90;53.30;;;;;;10492329;28;20135;-24
2023/05/31 04:57:02;;;;;;;2.53;0.77;;;22.90;53.20;;;;;;10473453;28;20053;-24
2023/05/31 05:02:06;;;;;;;1.60;0.80;;;23.00;53.60;;;;;;10493744;28;20739;-24
2023/05/31 05:07:08;;;;;;;1.27;0.60;;;23.00;53.50;;;;;;10490423;28;20037;-24
2023/05/31 05:12:10;;;;;;;;;;;22.90;53.20;;;;;;10491353;28;20045;-23
2023/05/31 05:17:13;;;;;;;1.33;0.70;;;22.80;53.30;;;;;;10485434;28;20007;-24
2023/05/31 05:22:15;;;;;;;2.03;0.70;;;22.80;53.40;;;;;;10491455;28;20447;-24
2023/05/31 05:27:17;;;;;;;;;;;22.80;53.60;;;;;;10473474;28;20091;-21
2023/05/31 05:32:20;;;;;;;0.90;0.80;;;22.70;53.50;;;;;;10481014;28;20361;-25
2023/05/31 05:37:22;;;;;;;1.00;0.80;;;22.80;53.90;;;;;;10486374;28;20528;-24
2023/05/31 05:42:24;;;;;;;1.63;0.75;;;23.10;53.50;;;;;;10492403;28;20482;-24
2023/05/31 05:47:27;;;;;;;3.40;0.63;;;23.00;53.50;;;;;;10492860;28;20041;-23
2023/05/31 05:52:29;;;;;;;1.45;0.90;;;23.00;53.40;;;;;;10489538;28;20063;-24
2023/05/31 05:57:32;;;;;;;;;;;23.00;53.70;;;;;;10485151;28;20127;-23
2023/05/31 06:02:35;;;;;;;1.05;0.80;;;22.90;53.30;;;;;;10475225;28;19935;-22
2023/05/31 06:07:37;;;;;;;2.10;0.80;;;23.00;53.40;;;;;;10494251;28;20059;-23
2023/05/31 06:12:39;;;;;;;;;;;22.90;53.50;;;;;;10485556;28;20159;-23
2023/05/31 06:17:42;;;;;;;0.83;0.70;;;22.90;53.70;;;;;;10490344;28;20007;-25
2023/05/31 06:22:44;;;;;;;1.50;0.82;;;22.90;53.40;;;;;;10487631;28;20040;-23
2023/05/31 06:27:46;;;;;;;1.85;0.77;;;23.00;53.70;;;;;;10477235;28;20056;-24
2023/05/31 06:32:49;;;;;;;1.38;0.93;;;23.00;53.50;;;;;;10486913;28;20087;-23
2023/05/31 06:37:52;;;;;;;1.42;0.93;;;23.00;53.30;;;;;;10487192;28;20052;-23
2023/05/31 06:42:54;;;;;;;1.60;1.10;;;23.00;53.10;;;;;;10474620;28;20183;-24
2023/05/31 06:47:58;;;;;;;1.70;1.05;;;23.00;53.50;;;;;;10473706;28;20098;-24
2023/05/31 06:53:00;;;;;;;2.00;1.00;;;23.10;53.40;;;;;;10474980;28;20060;-23
2023/05/31 06:58:02;;;;;;;;;;;23.10;53.80;;;;;;10480484;28;20048;-24
2023/05/31 07:03:05;;;;;;;;;;;23.20;53.30;;;;;;10480899;28;19959;-24
2023/05/31 07:08:07;;;;;;;3.60;1.27;;;23.40;53.30;;;;;;10483821;28;19955;-24
2023/05/31 07:13:09;;;;;;;;;;;23.40;53.50;;;;;;10484951;28;20148;-24
2023/05/31 07:18:13;;;;;;;4.85;1.65;;;23.40;53.40;;;;;;10486783;28;19920;-23
2023/05/31 07:23:14;;;;;;;2.00;1.30;;;23.40;53.40;;;;;;10488909;28;20460;-24
2023/05/31 07:28:16;;;;;;;;;;;23.40;53.40;;;;;;10487558;28;20136;-24
2023/05/31 07:33:20;;;;;;;1.92;1.20;;;23.20;53.80;;;;;;10474484;28;20388;-24
2023/05/31 07:38:22;;;;;;;2.85;1.40;;;23.40;53.60;;;;;;10485127;28;20539;-24
2023/05/31 07:43:24;;;;;;;4.72;2.22;;;23.70;53.70;;;;;;10483225;28;20102;-24
2023/05/31 07:48:28;;;;;;;5.25;1.98;;;23.70;53.60;;;;;;10486544;28;20052;-24
2023/05/31 07:53:30;;;;;;;3.45;1.83;;;23.80;53.50;;;;;;10485688;28;20048;-23
2023/05/31 07:58:32;;;;;;;2.78;1.90;;;23.80;53.50;;;;;;10479694;28;20045;-29
2023/05/31 08:03:35;;;;;;;;;;;23.90;53.60;;;;;;10495215;28;20098;-25
2023/05/31 08:08:37;;;;;;;3.05;1.50;;;23.90;53.50;;;;;;10492149;28;20007;-24
2023/05/31 08:13:38;;;;;;;;;;;24.00;53.40;;;;;;10497272;28;20091;-24
2023/05/31 08:18:42;;;;;;;4.63;2.10;;;24.00;53.40;;;;;;10492951;28;19928;-23
2023/05/31 08:23:44;;;;;;;6.07;2.60;;;24.00;53.70;;;;;;10489504;28;20747;-24
2023/05/31 08:28:46;;;;;;;3.95;1.85;;;23.90;53.60;;;;;;10501254;28;20076;-24
2023/05/31 08:33:57;;;;;;;3.78;2.13;;;24.10;53.60;;;;;;10489437;28;20076;-24
2023/05/31 08:38:59;;;;;;;5.80;3.03;;;24.20;53.20;;;;;;10492375;28;20045;-24
2023/05/31 08:44:02;;;;;;;3.58;2.08;;;24.10;53.30;;;;;;10487946;28;20055;-24
2023/05/31 08:49:11;;;;;;;10.73;3.60;;;23.70;54.10;;;;;;10483917;28;20048;-24
2023/05/31 08:54:14;;;;;;;5.72;2.10;;;23.70;54.10;;;;;;10486580;28;20053;-22
2023/05/31 08:59:18;;;;;;;3.80;1.77;;;24.10;53.30;;;;;;10485963;28;20167;-23
2023/05/31 09:04:22;;;;;;;7.10;1.77;;;24.40;53.00;;;;;;10504595;28;20048;-24
2023/05/31 09:09:24;;;;;;;7.75;1.60;;;24.30;53.20;;;;;;10492876;28;20080;-24
2023/05/31 09:14:26;;;;;;;5.78;3.10;;;24.40;53.00;;;;;;10491883;28;20057;-24
2023/05/31 09:19:30;;;;;;;;;;;24.10;53.40;;;;;;10504602;28;20052;-24
2023/05/31 09:24:32;;;;;;;5.68;2.22;;;23.50;54.60;;;;;;10499402;28;19927;-23
2023/05/31 09:29:37;;;;;;;;;;;23.70;54.40;;;;;;10488254;28;20079;-23
2023/05/31 09:34:40;;;;;;;11.15;2.58;;;23.40;54.90;;;;;;10489321;28;20285;-24
2023/05/31 09:39:54;;;;;;;11.95;2.33;;;24.20;53.60;;;;;;10484902;28;20040;-23
2023/05/31 09:44:58;;;;;;;6.78;2.03;;;24.30;53.20;;;;;;10486391;28;20640;-24
2023/05/31 09:50:02;;;;;;;6.80;2.90;;;24.40;53.20;;;;;;10487656;28;20474;-24
2023/05/31 09:55:07;;;;;;;3.08;1.75;;;24.40;54.20;;;;;;10492481;28;20049;-25
2023/05/31 10:00:17;;;;;;;2.90;2.00;;;24.30;53.60;;;;;;10481246;28;20044;-23
2023/05/31 10:05:21;;;;;;;5.45;2.25;;;24.40;53.70;;;;;;10492820;28;20619;-23
2023/05/31 10:10:23;;;;;;;14.85;4.45;;;24.10;54.50;;;;;;10484053;28;20041;-24
2023/05/31 10:15:26;;;;;;;8.52;1.98;;;23.20;57.80;;;;;;10482693;28;20083;-25
2023/05/31 10:20:37;;;;;;;6.53;1.90;;;23.30;56.70;;;;;;10489493;28;20060;-24
2023/05/31 10:25:46;;;;;;;6.00;2.28;;;24.20;55.20;;;;;;10484485;28;20049;-24
2023/05/31 10:30:50;;;;;;;6.28;2.90;;;24.20;55.00;;;;;;10489720;28;20511;-24
2023/05/31 10:35:55;;;;;;;8.40;3.35;;;23.30;57.00;;;;;;10483664;28;20053;-24
2023/05/31 10:41:06;;;;;;;9.45;3.42;;;23.10;57.90;;;;;;10482675;28;20047;-24
2023/05/31 10:46:10;;;;;;;10.90;4.43;;;24.00;55.70;;;;;;10488499;28;20132;-24
2023/05/31 10:51:16;;;;;;;3.47;2.08;;;23.50;56.70;;;;;;10488884;28;20128;-24
2023/05/31 10:56:19;;;;;;;8.18;2.65;;;23.70;56.90;;;;;;10483244;28;20393;-24
2023/05/31 11:01:21;;;;;;;9.43;3.88;;;23.90;56.20;;;;;;10488061;28;20048;-24
2023/05/31 11:06:26;;;;;;;11.02;4.30;;;24.50;56.10;;;;;;10494619;28;20044;-23
2023/05/31 11:11:44;;;;;;;11.73;3.47;;;23.00;59.10;;;;;;10490112;28;20091;-24
2023/05/31 11:17:14;;;;;;;9.45;4.10;;;23.70;57.20;;;;;;10487759;28;20056;-24
2023/05/31 11:22:22;;;;;;;7.90;4.00;;;23.50;57.70;;;;;;10488172;28;20128;-24
2023/05/31 11:27:36;;;;;;;8.88;2.72;;;23.70;57.50;;;;;;10482818;28;20080;-24
2023/05/31 11:33:15;;;;;;;6.88;2.40;;;23.90;57.60;;;;;;10505097;28;20102;-24
2023/05/31 11:38:18;;;;;;;6.90;2.42;;;24.30;56.40;;;;;;10494843;28;20087;-22
2023/05/31 11:43:26;;;;;;;13.75;5.75;;;24.10;56.50;;;;;;10499852;28;20048;-23
2023/05/31 11:48:35;;;;;;;6.57;2.67;;;22.60;63.70;;;;;;10496901;28;20075;-23
2023/05/31 11:53:38;;;;;;;10.75;5.20;;;24.50;59.20;;;;;;10496963;28;20079;-23
2023/05/31 11:58:46;;;;;;;8.55;3.78;;;23.50;59.70;;;;;;10497380;28;20076;-23
2023/05/31 12:03:48;;;;;;;14.15;4.90;;;24.00;58.70;;;;;;10487936;28;20452;-24
2023/05/31 12:08:52;;;;;;;;;;;23.10;61.80;;;;;;10485128;28;20102;-24
2023/05/31 12:13:54;;;;;;;6.78;3.85;;;23.50;61.30;;;;;;10471410;28;19937;-24
2023/05/31 12:18:58;;;;;;;6.53;3.22;;;24.30;57.60;;;;;;10478071;28;20404;-23
2023/05/31 12:24:12;;;;;;;5.32;2.65;;;23.90;59.90;;;;;;10490778;28;20165;-23
2023/05/31 12:29:14;;;;;;;4.38;2.25;;;24.90;56.90;;;;;;10502245;28;20040;-24
2023/05/31 12:34:18;;;;;;;4.40;2.50;;;25.30;55.90;;;;;;10493173;28;20048;-24
2023/05/31 12:39:24;;;;;;;10.93;4.43;;;25.70;54.80;;;;;;10491778;28;20052;-23
2023/05/31 12:44:27;;;;;;;3.42;2.30;;;24.90;56.10;;;;;;10503333;28;20048;-23
2023/05/31 12:49:31;;;;;;;8.27;3.63;;;25.30;55.80;;;;;;10493989;28;20056;-24
2023/05/31 12:54:36;;;;;;;10.90;4.63;;;25.00;56.10;;;;;;10496122;28;20055;-23
2023/05/31 12:59:38;;;;;;;9.77;3.92;;;25.20;55.80;;;;;;10493033;28;20048;-24
2023/05/31 13:04:40;;;;;;;15.50;5.10;;;25.50;55.20;;;;;;10501284;28;20053;-24
2023/05/31 13:09:44;;;;;;;8.57;3.63;;;24.80;56.80;;;;;;10493120;28;20549;-24
2023/05/31 13:14:45;;;;;;;12.85;3.53;;;25.50;55.10;;;;;;10483472;28;20057;-24
2023/05/31 13:19:47;;;;;;;8.07;2.92;;;25.40;55.80;;;;;;10495410;28;20048;-25
2023/05/31 13:24:51;;;;;;;12.75;3.30;;;26.10;54.70;;;;;;10497290;28;20048;-25
2023/05/31 13:29:52;;;;;;;12.35;3.88;;;26.10;54.80;;;;;;10486177;28;20141;-24
2023/05/31 13:34:54;;;;;;;14.07;3.70;;;26.20;54.20;;;;;;10496830;28;20075;-24
2023/05/31 13:39:57;;;;;;;9.73;2.50;;;26.10;54.60;;;;;;10484369;28;20056;-25
2023/05/31 13:45:00;;;;;;;4.03;1.83;;;26.10;54.60;;;;;;10489731;28;20647;-24
2023/05/31 13:50:02;;;;;;;6.63;2.22;;;26.80;53.30;;;;;;10488225;28;20152;-23
2023/05/31 13:55:06;;;;;;;7.07;2.28;;;26.90;53.10;;;;;;10474516;28;20052;-25
2023/05/31 14:00:10;;;;;;;17.65;5.00;;;27.20;53.00;;;;;;10494437;28;20080;-24
2023/05/31 14:05:12;;;;;;;5.63;2.25;;;27.30;52.40;;;;;;10478445;28;20098;-24
2023/05/31 14:10:16;;;;;;;7.78;2.97;;;27.50;52.60;;;;;;10482358;28;20097;-24
2023/05/31 14:15:18;;;;;;;7.45;2.42;;;27.60;52.60;;;;;;10488154;28;20067;-29
2023/05/31 14:20:20;;;;;;;6.90;2.78;;;27.30;53.30;;;;;;10503698;28;20132;-23
2023/05/31 14:25:23;;;;;;;19.58;4.40;;;27.50;52.60;;;;;;10475514;28;20076;-24
2023/05/31 14:30:26;;;;;;;7.70;2.03;;;27.80;52.10;;;;;;10487191;28;20097;-24
2023/05/31 14:35:28;;;;;;;14.43;3.33;;;27.90;51.80;;;;;;10489839;28;20053;-24
2023/05/31 14:40:31;;;;;;;5.75;2.28;;;27.80;52.60;;;;;;10481454;28;20050;-25
2023/05/31 14:45:33;;;;;;;4.97;2.28;;;28.10;52.60;;;;;;10481674;28;20110;-24
2023/05/31 14:50:35;;;;;;;13.38;4.82;;;28.30;51.60;;;;;;10497811;28;20041;-23
2023/05/31 14:55:39;;;;;;;4.53;2.00;;;27.90;51.40;;;;;;10485476;28;20060;-23
2023/05/31 15:00:41;;;;;;;5.15;2.17;;;28.30;52.00;;;;;;10474873;28;20048;-24
2023/05/31 15:05:43;;;;;;;3.42;1.80;;;28.50;51.40;;;;;;10478385;28;20449;-23
2023/05/31 15:10:46;;;;;;;7.80;2.53;;;28.60;51.90;;;;;;10490124;28;20076;-24
2023/05/31 15:15:48;;;;;;;5.78;1.80;;;28.30;51.50;;;;;;10487340;28;20072;-25
2023/05/31 15:20:50;;;;;;;9.45;2.30;;;28.40;51.70;;;;;;10479790;28;20044;-25
2023/05/31 15:25:53;;;;;;;5.25;1.95;;;28.70;51.20;;;;;;10483481;28;20118;-25
2023/05/31 15:30:56;;;;;;;6.45;2.03;;;28.90;51.30;;;;;;10479554;28;20133;-24
2023/05/31 15:35:58;;;;;;;5.88;2.20;;;29.00;51.10;;;;;;10484678;28;20056;-24
2023/05/31 15:41:02;;;;;;;9.43;2.33;;;29.10;51.00;;;;;;10476441;28;20045;-25
2023/05/31 15:46:04;;;;;;;7.05;2.60;;;29.20;51.70;;;;;;10478706;28;20060;-23
2023/05/31 15:51:06;;;;;;;6.82;1.88;;;29.40;51.40;;;;;;10483948;28;20059;-24
2023/05/31 15:56:09;;;;;;;6.90;1.60;;;29.40;50.70;;;;;;10487340;28;20151;-24
2023/05/31 16:01:11;;;;;;;7.05;1.77;;;29.40;50.70;;;;;;10475100;28;20055;-25
2023/05/31 16:06:13;;;;;;;5.43;1.90;;;29.40;50.90;;;;;;10483641;28;20048;-24
2023/05/31 16:11:16;;;;;;;6.03;1.92;;;29.60;51.30;;;;;;10476240;28;20059;-24
2023/05/31 16:16:18;;;;;;;8.98;2.50;;;29.70;52.10;;;;;;10470658;28;20472;-28
2023/05/31 16:21:20;;;;;;;6.35;2.15;;;29.80;51.80;;;;;;10483821;28;20088;-22
2023/05/31 16:26:24;;;;;;;8.77;2.45;;;29.70;50.70;;;;;;10489659;28;20044;-24
2023/05/31 16:31:26;;;;;;;5.70;2.22;;;29.70;50.20;;;;;;10489113;28;20045;-22
2023/05/31 16:36:28;;;;;;;7.95;2.63;;;29.60;51.50;;;;;;10498031;28;20152;-23
2023/05/31 16:41:32;;;;;;;7.15;2.55;;;29.80;50.50;;;;;;10486876;28;20422;-22
2023/05/31 16:46:34;;;;;;;6.65;2.50;;;29.70;51.30;;;;;;10482535;28;20521;-25
2023/05/31 16:51:36;;;;;;;8.82;2.88;;;29.70;51.00;;;;;;10484374;28;20068;-24
2023/05/31 16:56:39;;;;;;;5.00;2.55;;;29.80;50.10;;;;;;10492402;28;20056;-24
2023/05/31 17:01:41;;;;;;;6.88;2.10;;;29.70;51.00;;;;;;10479361;28;20052;-25
2023/05/31 17:06:43;;;;;;;6.78;2.33;;;29.70;50.00;;;;;;10485835;28;20131;-22
2023/05/31 17:11:46;;;;;;;9.15;2.97;;;29.80;50.10;;;;;;10482640;28;20079;-24
2023/05/31 17:16:48;;;;;;;8.43;2.85;;;29.90;49.70;;;;;;10486607;28;20143;-22
2023/05/31 17:21:50;;;;;;;6.32;2.13;;;29.80;52.40;;;;;;10491519;28;20056;-23
2023/05/31 17:26:53;;;;;;;8.55;2.42;;;29.90;50.60;;;;;;10489712;28;20049;-24
2023/05/31 17:31:56;;;;;;;6.82;2.60;;;30.10;50.60;;;;;;10483829;28;20493;-25
2023/05/31 17:36:58;;;;;;;8.02;2.50;;;30.20;51.30;;;;;;10487311;28;20442;-26
2023/05/31 17:42:02;;;;;;;6.38;2.58;;;30.20;50.80;;;;;;10471117;28;20068;-23
2023/05/31 17:47:11;;;;;;;10.82;2.58;;;30.30;51.40;;;;;;10474409;28;20040;-23
2023/05/31 17:52:13;;;;;;;5.57;2.30;;;30.20;50.90;;;;;;10488660;28;20494;-24
2023/05/31 17:57:16;;;;;;;5.43;1.90;;;30.20;51.40;;;;;;10488146;28;20064;-23
2023/05/31 18:02:18;;;;;;;6.53;2.30;;;30.20;50.60;;;;;;10487533;28;20075;-24
2023/05/31 18:07:20;;;;;;;7.43;2.22;;;30.30;50.70;;;;;;10486990;28;20420;-23
2023/05/31 18:12:24;;;;;;;5.47;2.20;;;30.00;51.10;;;;;;10487404;28;20782;-24
2023/05/31 18:17:26;;;;;;;10.77;2.50;;;29.90;51.70;;;;;;10481634;28;20051;-23
2023/05/31 18:22:28;;;;;;;6.30;2.35;;;30.10;52.30;;;;;;10493628;28;20071;-24
2023/05/31 18:27:31;;;;;;;4.50;2.05;;;29.90;51.80;;;;;;10487499;28;20493;-24
2023/05/31 18:32:34;;;;;;;4.00;2.05;;;30.00;51.30;;;;;;10495622;28;20048;-24
2023/05/31 18:37:35;;;;;;;4.55;2.25;;;30.00;52.60;;;;;;10468698;28;20072;-23
2023/05/31 18:42:39;;;;;;;4.00;1.92;;;29.80;51.40;;;;;;10487569;28;20136;-24
2023/05/31 18:47:41;;;;;;;5.25;2.42;;;30.10;51.10;;;;;;10486770;28;20050;-25
2023/05/31 18:52:43;;;;;;;5.55;1.95;;;30.00;51.20;;;;;;10476791;28;20535;-23
2023/05/31 18:57:47;;;;;;;5.53;2.03;;;29.90;51.00;;;;;;10497146;28;20056;-24
2023/05/31 19:02:49;;;;;;;5.95;2.42;;;29.80;51.10;;;;;;10494732;28;20045;-25
2023/05/31 19:07:51;;;;;;;2.97;1.75;;;29.60;51.40;;;;;;10487784;28;20528;-24
2023/05/31 19:12:54;;;;;;;5.28;1.77;;;29.70;51.30;;;;;;10487264;28;20048;-24
2023/05/31 19:17:57;;;;;;;4.30;2.00;;;29.70;51.30;;;;;;10481573;28;20048;-24
2023/05/31 19:22:59;;;;;;;7.85;2.13;;;29.70;51.30;;;;;;10493444;28;20110;-25
2023/05/31 19:28:02;;;;;;;5.65;1.77;;;29.50;51.30;;;;;;10481735;28;20098;-23
2023/05/31 19:33:05;;;;;;;5.18;1.83;;;29.40;51.10;;;;;;10488519;28;20060;-24
2023/05/31 19:38:07;;;;;;;6.35;2.05;;;29.40;51.20;;;;;;10482637;28;20442;-25
2023/05/31 19:43:11;;;;;;;6.38;1.63;;;29.30;51.30;;;;;;10483404;28;20091;-24
2023/05/31 19:48:14;;;;;;;5.20;2.13;;;29.30;51.30;;;;;;10487416;28;20064;-25
2023/05/31 19:53:16;;;;;;;6.57;2.58;;;29.30;51.20;;;;;;10492626;28;20451;-25
2023/05/31 19:58:19;;;;;;;7.65;3.15;;;29.20;51.20;;;;;;10499744;28;20133;-27
2023/05/31 20:03:23;;;;;;;7.50;2.20;;;29.10;51.40;;;;;;10483519;28;20143;-24
2023/05/31 20:08:25;;;;;;;11.20;3.20;;;29.00;51.40;;;;;;10496394;28;20052;-23
2023/05/31 20:13:29;;;;;;;5.43;1.73;;;28.90;51.50;;;;;;10485142;28;20131;-23
2023/05/31 20:18:31;;;;;;;5.90;2.55;;;28.90;51.50;;;;;;10487803;28;20052;-25
2023/05/31 20:23:33;;;;;;;12.55;2.70;;;28.80;51.50;;;;;;10490709;28;20540;-23
2023/05/31 20:28:36;;;;;;;7.68;2.35;;;28.70;51.40;;;;;;10482383;28;20135;-24
2023/05/31 20:33:38;;;;;;;10.32;2.50;;;28.60;51.40;;;;;;10484591;28;20507;-21
2023/05/31 20:38:40;;;;;;;8.48;2.55;;;28.50;51.50;;;;;;10489668;28;20079;-24
2023/05/31 20:43:43;;;;;;;11.50;2.50;;;28.40;51.60;;;;;;10482934;28;20114;-24
2023/05/31 20:48:50;;;;;;;10.38;2.55;;;28.30;51.60;;;;;;10482419;28;20048;-24
2023/05/31 20:53:52;;;;;;;5.13;2.38;;;28.30;51.90;;;;;;10493100;28;20152;-25
2023/05/31 20:58:55;;;;;;;7.10;2.45;;;28.20;51.90;;;;;;10482234;28;20053;-27
2023/05/31 21:03:58;;;;;;;14.00;5.15;;;28.20;52.50;;;;;;10493154;28;20174;-25
2023/05/31 21:09:00;;;;;;;19.30;7.80;;;28.10;52.00;;;;;;10503159;28;20050;-23
2023/05/31 21:14:03;;;;;;;9.95;5.70;;;28.00;52.00;;;;;;10502286;28;20063;-23
2023/05/31 21:19:06;;;;;;;13.80;7.75;;;28.00;52.00;;;;;;10503035;28;20113;-25
2023/05/31 21:24:08;;;;;;;8.95;5.47;;;27.90;52.20;;;;;;10514010;28;20080;-26
2023/05/31 21:29:12;;;;;;;13.38;6.97;;;27.80;52.10;;;;;;10504654;28;20055;-24
2023/05/31 21:34:14;;;;;;;19.08;13.15;;;27.80;52.20;;;;;;10499699;28;20044;-25
2023/05/31 21:39:16;;;;;;;24.55;17.33;;;27.70;52.20;;;;;;10517259;28;20048;-25
2023/05/31 21:44:19;;;;;;;26.25;20.40;;;27.70;52.20;;;;;;10476808;28;20159;-22
2023/05/31 21:49:21;;;;;;;31.33;20.95;;;27.60;52.20;;;;;;10509506;28;20051;-24
2023/05/31 21:54:23;;;;;;;25.45;16.70;;;27.60;52.30;;;;;;10507413;28;20516;-22
2023/05/31 21:59:27;;;;;;;24.55;18.27;;;27.50;52.40;;;;;;10505278;28;20469;-24
2023/05/31 22:04:28;;;;;;;24.13;18.45;;;27.40;52.30;;;;;;10500191;28;20487;-25
2023/05/31 22:09:30;;;;;;;21.58;17.95;;;27.40;52.40;;;;;;10505404;28;20048;-25
2023/05/31 22:14:34;;;;;;;27.20;20.75;;;27.30;52.40;;;;;;10520998;28;20443;-24
2023/05/31 22:19:37;;;;;;;25.13;20.30;;;27.20;52.40;;;;;;10501233;28;20064;-24
2023/05/31 22:24:39;;;;;;;25.25;18.80;;;27.10;52.40;;;;;;10494903;28;20040;-25
2023/05/31 22:29:42;;;;;;;29.52;21.60;;;27.10;52.40;;;;;;10501100;28;20045;-24
2023/05/31 22:34:44;;;;;;;26.58;19.05;;;27.10;52.50;;;;;;10483387;28;20048;-24
2023/05/31 22:39:46;;;;;;;27.05;19.50;;;27.00;52.40;;;;;;10493934;28;20585;-23
2023/05/31 22:44:50;;;;;;;24.20;16.67;;;27.00;52.50;;;;;;10486660;28;20055;-23
2023/05/31 22:49:51;;;;;;;27.50;19.63;;;26.90;52.60;;;;;;10507054;28;20093;-25
2023/05/31 22:54:53;;;;;;;27.55;19.65;;;26.80;52.50;;;;;;10504680;28;20091;-26
2023/05/31 22:59:56;;;;;;;22.90;17.38;;;26.80;52.50;;;;;;10498128;28;20138;-25
2023/05/31 23:04:58;;;;;;;24.02;18.85;;;26.70;52.50;;;;;;10506009;28;20127;-25
2023/05/31 23:10:01;;;;;;;26.70;18.30;;;26.60;52.40;;;;;;10496241;28;20076;-23
2023/05/31 23:15:05;;;;;;;23.45;18.23;;;26.60;52.60;;;;;;10491169;28;20052;-23
2023/05/31 23:20:11;;;;;;;22.27;17.30;;;26.50;52.60;;;;;;10503772;28;20174;-32
2023/05/31 23:25:15;;;;;;;23.92;17.05;;;26.50;52.60;;;;;;10498826;28;20047;-25
2023/05/31 23:30:18;;;;;;;25.08;19.35;;;26.40;52.60;;;;;;10508304;28;20039;-25
2023/05/31 23:35:20;;;;;;;22.60;17.52;;;26.30;52.50;;;;;;10515948;28;20052;-23
2023/05/31 23:40:22;;;;;;;19.88;15.00;;;26.30;52.60;;;;;;10511356;28;20044;-25
2023/05/31 23:45:25;;;;;;;16.70;12.82;;;26.30;52.70;;;;;;10509180;28;20036;-23
2023/05/31 23:50:27;;;;;;;16.33;12.05;;;26.20;52.80;;;;;;10506923;28;20080;-24
2023/05/31 23:55:30;;;;;;;16.92;12.13;;;26.10;52.70;;;;;;10510754;28;20051;-23
